Time;durP1;ratioP1;P1;durP2;ratioP2;P2;SDS_P1;SDS_P2;PMS_P1;PMS_P2;Temp;Humidity;BMP_temperature;BMP_pressure;BME280_temperature;BME280_humidity;BME280_pressure;Samples;Min_cycle;Max_cycle;Signal;HPM_P1;HPM_P2
2022/06/11 00:01:25;;;;;;;6.45;3.50;;;18.50;97.20;;;;;;5032827;28;20021;-65
2022/06/11 00:03:53;;;;;;;3.47;2.85;;;18.50;97.20;;;;;;5032870;28;20022;-65
2022/06/11 00:06:19;;;;;;;4.82;3.05;;;18.50;97.20;;;;;;5035689;28;20455;-65
2022/06/11 00:08:45;;;;;;;3.75;2.88;;;18.50;97.20;;;;;;5040491;28;20047;-65
2022/06/11 00:11:12;;;;;;;4.25;2.58;;;18.40;97.20;;;;;;5037821;28;20025;-65
2022/06/11 00:13:38;;;;;;;5.47;2.97;;;18.40;97.20;;;;;;5032547;28;20504;-65
2022/06/11 00:16:05;;;;;;;3.58;2.75;;;18.30;97.20;;;;;;5032739;28;20538;-65
2022/06/11 00:18:32;;;;;;;5.45;2.60;;;18.30;97.20;;;;;;5032647;28;20021;-65
2022/06/11 00:20:58;;;;;;;5.57;2.60;;;18.30;97.20;;;;;;5033351;28;20119;-65
2022/06/11 00:23:23;;;;;;;6.82;3.47;;;18.30;97.20;;;;;;5032145;28;20049;-65
2022/06/11 00:25:49;;;;;;;6.25;3.67;;;18.20;97.20;;;;;;5032251;28;20036;-65
2022/06/11 00:28:15;;;;;;;6.45;3.80;;;18.20;97.30;;;;;;5032506;28;20120;-65
2022/06/11 00:30:40;;;;;;;6.93;4.15;;;18.20;97.50;;;;;;5032332;28;20013;-65
2022/06/11 00:33:06;;;;;;;5.50;3.80;;;18.10;97.60;;;;;;5031142;28;20021;-65
2022/06/11 00:35:34;;;;;;;7.50;4.57;;;18.10;97.80;;;;;;5032130;28;20044;-65
2022/06/11 00:37:59;;;;;;;10.25;5.90;;;18.00;98.00;;;;;;5040830;28;20017;-65
2022/06/11 00:40:28;;;;;;;8.02;5.68;;;17.90;98.30;;;;;;5035093;28;20014;-65
2022/06/11 00:42:54;;;;;;;6.95;5.85;;;17.80;98.60;;;;;;5033803;28;20021;-65
2022/06/11 00:45:33;;;;;;;8.68;5.53;;;17.80;98.90;;;;;;5032326;28;20029;-65
2022/06/11 00:48:12;;;;;;;5.50;4.45;;;17.70;99.00;;;;;;5032228;28;20018;-65
2022/06/11 00:50:42;;;;;;;10.32;5.95;;;17.70;99.20;;;;;;5031747;28;20087;-65
2022/06/11 00:53:32;;;;;;;8.45;5.75;;;17.60;99.40;;;;;;5047988;28;20037;-64
2022/06/11 00:56:00;;;;;;;7.40;5.53;;;17.60;99.70;;;;;;5032377;28;20557;-64
2022/06/11 00:58:30;;;;;;;6.05;4.28;;;17.50;99.80;;;;;;5031992;28;20057;-65
2022/06/11 01:00:56;;;;;;;;;;;17.40;99.80;;;;;;5048290;28;20098;-65
2022/06/11 01:03:28;;;;;;;6.93;4.80;;;17.40;99.80;;;;;;5041967;28;19963;-65
2022/06/11 01:06:09;;;;;;;8.73;4.97;;;17.40;99.90;;;;;;5034893;28;20074;-65
2022/06/11 01:09:04;;;;;;;7.30;4.15;;;17.40;99.90;;;;;;5032787;28;20112;-64
2022/06/11 01:11:43;;;;;;;5.18;4.32;;;17.40;99.90;;;;;;5034347;28;20029;-64
2022/06/11 01:14:23;;;;;;;6.47;5.00;;;17.30;99.90;;;;;;5034316;28;20026;-65
2022/06/11 01:17:12;;;;;;;4.95;3.78;;;17.30;99.80;;;;;;5032033;28;20100;-65
2022/06/11 01:19:56;;;;;;;5.93;4.15;;;17.30;99.70;;;;;;5031844;28;20026;-65
2022/06/11 01:22:46;;;;;;;5.93;3.80;;;17.30;99.60;;;;;;5031620;28;20029;-65
2022/06/11 01:25:17;;;;;;;5.95;4.22;;;17.30;99.60;;;;;;5030658;28;20025;-65
2022/06/11 01:28:25;;;;;;;9.52;4.82;;;17.20;99.70;;;;;;5030512;28;20381;-65
2022/06/11 01:30:58;;;;;;;6.03;4.55;;;17.20;99.70;;;;;;5037047;28;20091;-65
2022/06/11 01:33:42;;;;;;;9.18;5.40;;;17.00;99.90;;;;;;5043569;28;20049;-65
2022/06/11 01:36:10;;;;;;;7.25;4.85;;;17.00;99.90;;;;;;5038743;28;20017;-65
2022/06/11 01:38:45;;;;;;;8.27;5.15;;;16.90;99.90;;;;;;5035321;28;20040;-65
2022/06/11 01:41:33;;;;;;;8.38;5.45;;;16.90;99.90;;;;;;5035535;28;20084;-65
2022/06/11 01:44:03;;;;;;;5.75;4.55;;;16.80;99.90;;;;;;5034343;28;20112;-65
2022/06/11 01:46:38;;;;;;;5.55;5.05;;;16.70;99.90;;;;;;5035374;28;20053;-64
2022/06/11 01:49:27;;;;;;;6.03;4.57;;;16.70;99.90;;;;;;5042564;28;20021;-65
2022/06/11 01:52:11;;;;;;;6.47;4.47;;;16.70;99.90;;;;;;5040492;28;20029;-65
2022/06/11 01:55:07;;;;;;;5.47;4.35;;;16.60;99.90;;;;;;5049870;28;20041;-64
2022/06/11 01:57:51;;;;;;;6.00;4.13;;;16.60;99.90;;;;;;5033836;28;20476;-65
2022/06/11 02:00:26;;;;;;;7.43;4.20;;;16.50;99.90;;;;;;5035214;28;20038;-65
2022/06/11 02:03:19;;;;;;;7.47;3.90;;;16.50;99.90;;;;;;5034907;28;20021;-65
2022/06/11 02:06:22;;;;;;;6.82;4.05;;;16.50;99.90;;;;;;5034724;28;20026;-65
2022/06/11 02:09:29;;;;;;;5.57;4.35;;;16.50;99.90;;;;;;5034743;28;20041;-65
2022/06/11 02:12:10;;;;;;;4.88;3.40;;;16.50;99.90;;;;;;5035229;28;20029;-64
2022/06/11 02:14:44;;;;;;;5.38;3.90;;;16.50;99.90;;;;;;5043047;28;20392;-65
2022/06/11 02:17:24;;;;;;;3.85;3.45;;;16.50;99.90;;;;;;5034657;28;20013;-65
2022/06/11 02:20:16;;;;;;;5.93;4.15;;;16.50;99.90;;;;;;5035747;28;20029;-64
2022/06/11 02:22:49;;;;;;;6.53;4.05;;;16.50;99.90;;;;;;5042955;28;20123;-65
2022/06/11 02:25:24;;;;;;;8.43;5.30;;;16.40;99.90;;;;;;5046802;28;20029;-64
2022/06/11 02:27:54;;;;;;;8.80;5.35;;;16.40;99.90;;;;;;5034838;28;20021;-64
2022/06/11 02:30:24;;;;;;;8.27;5.45;;;16.30;99.90;;;;;;5054028;28;20013;-65
2022/06/11 02:32:50;;;;;;;;;;;16.20;99.90;;;;;;5038989;28;20022;-65
2022/06/11 02:35:29;;;;;;;6.75;5.78;;;16.10;99.90;;;;;;5034490;28;19911;-64
2022/06/11 02:37:55;;;;;;;;;;;16.10;99.90;;;;;;5035040;28;20053;-65
2022/06/11 02:40:31;;;;;;;7.63;4.95;;;15.90;99.90;;;;;;5034544;28;19936;-65
2022/06/11 02:42:57;;;;;;;4.38;3.70;;;15.90;99.90;;;;;;5046846;28;20029;-65
2022/06/11 02:45:23;;;;;;;6.65;3.90;;;15.90;99.90;;;;;;5032763;28;20116;-65
2022/06/11 02:47:51;;;;;;;3.60;2.97;;;15.90;99.90;;;;;;5032347;28;20025;-65
2022/06/11 02:50:22;;;;;;;4.40;2.72;;;16.00;99.90;;;;;;5034320;28;20029;-64
2022/06/11 02:52:48;;;;;;;5.57;3.53;;;16.00;99.90;;;;;;5034860;28;20042;-64
2022/06/11 02:55:14;;;;;;;4.80;3.47;;;16.10;99.90;;;;;;5034429;28;20028;-65
2022/06/11 02:57:39;;;;;;;2.80;2.55;;;16.10;99.90;;;;;;5034427;28;20064;-64
2022/06/11 03:00:09;;;;;;;5.35;3.40;;;16.10;99.90;;;;;;5045540;28;20029;-64
2022/06/11 03:02:35;;;;;;;4.35;2.85;;;16.10;99.90;;;;;;5037302;28;20385;-65
2022/06/11 03:05:01;;;;;;;3.95;3.35;;;16.10;99.90;;;;;;5046323;28;20025;-64
2022/06/11 03:07:26;;;;;;;4.57;3.55;;;16.10;99.90;;;;;;5052921;28;20025;-65
2022/06/11 03:09:52;;;;;;;4.07;3.28;;;16.10;99.90;;;;;;5038309;28;20037;-65
2022/06/11 03:12:17;;;;;;;4.72;3.67;;;16.10;99.90;;;;;;5048610;28;20104;-65
2022/06/11 03:14:44;;;;;;;7.13;4.30;;;16.10;99.90;;;;;;5053669;28;20100;-65
2022/06/11 03:17:13;;;;;;;5.38;4.00;;;16.10;99.90;;;;;;5037598;28;20112;-65
2022/06/11 03:19:39;;;;;;;4.78;3.22;;;16.00;99.90;;;;;;5033879;28;20029;-65
2022/06/11 03:22:05;;;;;;;7.22;4.20;;;16.00;99.90;;;;;;5034399;28;20028;-65
2022/06/11 03:24:31;;;;;;;5.43;3.20;;;16.00;99.90;;;;;;5033607;28;20029;-64
2022/06/11 03:26:57;;;;;;;4.82;3.22;;;16.00;99.90;;;;;;5032328;28;20551;-65
2022/06/11 03:29:25;;;;;;;5.97;2.70;;;16.00;99.90;;;;;;5049777;28;20515;-65
2022/06/11 03:31:51;;;;;;;4.82;2.75;;;16.00;99.90;;;;;;5045379;28;20024;-65
2022/06/11 03:34:17;;;;;;;5.68;2.85;;;16.00;99.90;;;;;;5044369;28;20024;-64
2022/06/11 03:36:44;;;;;;;4.40;2.70;;;16.10;99.90;;;;;;5041733;28;20025;-64
2022/06/11 03:39:11;;;;;;;6.80;3.47;;;16.00;99.90;;;;;;5042629;28;20026;-65
2022/06/11 03:41:37;;;;;;;4.25;2.20;;;16.10;99.90;;;;;;5039481;28;20477;-64
2022/06/11 03:44:03;;;;;;;4.43;2.47;;;16.00;99.90;;;;;;5039891;28;20048;-64
2022/06/11 03:46:29;;;;;;;4.30;3.38;;;16.10;99.90;;;;;;5038666;28;20025;-64
2022/06/11 03:48:56;;;;;;;4.65;2.20;;;16.00;99.90;;;;;;5041121;28;20056;-64
2022/06/11 03:51:22;;;;;;;3.05;1.85;;;16.10;99.90;;;;;;5042248;28;20033;-65
2022/06/11 03:53:48;;;;;;;6.78;1.95;;;16.10;99.90;;;;;;5038923;28;20120;-65
2022/06/11 03:56:16;;;;;;;5.60;2.10;;;16.10;99.90;;;;;;5041399;28;20113;-65
2022/06/11 03:58:44;;;;;;;3.67;1.65;;;16.10;99.90;;;;;;5037540;28;20021;-64
2022/06/11 04:01:16;;;;;;;3.08;1.52;;;16.10;99.90;;;;;;5033230;28;20095;-65
2022/06/11 04:04:00;;;;;;;3.08;1.70;;;16.10;99.90;;;;;;5049410;28;20479;-65
2022/06/11 04:06:30;;;;;;;6.90;1.95;;;16.20;99.90;;;;;;5046936;28;20106;-65
2022/06/11 04:08:57;;;;;;;3.42;1.55;;;16.10;99.90;;;;;;5051791;28;20021;-65
2022/06/11 04:11:23;;;;;;;3.42;1.30;;;16.10;99.90;;;;;;5052036;28;20021;-64
2022/06/11 04:13:50;;;;;;;3.28;1.10;;;16.10;99.90;;;;;;5051562;28;20040;-65
2022/06/11 04:16:24;;;;;;;3.90;1.20;;;16.10;99.90;;;;;;5039836;28;20022;-66
2022/06/11 04:18:51;;;;;;;4.13;1.30;;;16.20;99.90;;;;;;5051258;28;20025;-66
2022/06/11 04:21:19;;;;;;;2.20;1.10;;;16.20;99.90;;;;;;5037294;28;20048;-65
2022/06/11 04:23:47;;;;;;;2.90;1.42;;;16.20;99.90;;;;;;5033082;28;20024;-66
2022/06/11 04:26:18;;;;;;;3.83;1.40;;;16.20;99.90;;;;;;5033385;28;20037;-66
2022/06/11 04:28:44;;;;;;;3.28;1.65;;;16.20;99.90;;;;;;5033225;28;20439;-66
2022/06/11 04:31:10;;;;;;;4.60;1.45;;;16.20;99.90;;;;;;5033261;28;20049;-65
2022/06/11 04:33:36;;;;;;;3.03;1.13;;;16.20;99.90;;;;;;5036034;28;20482;-66
2022/06/11 04:36:04;;;;;;;3.13;1.27;;;16.20;99.90;;;;;;5045460;28;20021;-66
2022/06/11 04:38:29;;;;;;;4.35;1.55;;;16.20;99.80;;;;;;5050620;28;20017;-65
2022/06/11 04:40:55;;;;;;;8.70;2.05;;;16.30;99.80;;;;;;5051231;28;20395;-66
2022/06/11 04:43:21;;;;;;;7.13;1.85;;;16.30;99.60;;;;;;5051409;28;20033;-65
2022/06/11 04:45:47;;;;;;;2.88;1.50;;;16.30;99.50;;;;;;5049778;28;20039;-65
2022/06/11 04:48:13;;;;;;;4.88;1.40;;;16.30;99.40;;;;;;5032309;28;20112;-65
2022/06/11 04:50:39;;;;;;;5.20;1.42;;;16.30;99.40;;;;;;5030508;28;20096;-65
2022/06/11 04:53:04;;;;;;;5.32;2.20;;;16.30;99.30;;;;;;5032059;28;20133;-65
2022/06/11 04:55:30;;;;;;;5.97;1.55;;;16.40;99.10;;;;;;5032010;28;20038;-65
2022/06/11 04:57:55;;;;;;;7.72;1.45;;;16.30;99.00;;;;;;5032323;28;20021;-65
2022/06/11 05:00:25;;;;;;;5.50;1.90;;;16.40;98.90;;;;;;5031856;28;20513;-65
2022/06/11 05:02:51;;;;;;;7.47;2.33;;;16.30;98.70;;;;;;5034300;28;20022;-66
2022/06/11 05:05:17;;;;;;;9.88;2.10;;;16.40;98.60;;;;;;5044774;28;20370;-66
2022/06/11 05:07:44;;;;;;;7.78;1.83;;;16.40;98.40;;;;;;5051161;28;20059;-65
2022/06/11 05:10:11;;;;;;;4.38;1.48;;;16.40;98.20;;;;;;5051561;28;20028;-65
2022/06/11 05:12:37;;;;;;;6.63;1.60;;;16.50;98.20;;;;;;5055998;28;20032;-66
2022/06/11 05:15:03;;;;;;;5.68;2.03;;;16.50;98.10;;;;;;5052908;28;20033;-66
2022/06/11 05:17:29;;;;;;;6.32;1.42;;;16.60;98.20;;;;;;5055659;28;20029;-65
2022/06/11 05:19:54;;;;;;;5.32;1.27;;;16.60;97.80;;;;;;5040374;28;20030;-66
2022/06/11 05:22:20;;;;;;;5.18;1.80;;;16.60;97.70;;;;;;5040664;28;20034;-65
2022/06/11 05:24:46;;;;;;;5.00;2.00;;;16.60;97.60;;;;;;5048013;28;20481;-66
2022/06/11 05:27:16;;;;;;;2.92;1.10;;;16.60;97.60;;;;;;5047421;28;20120;-65
2022/06/11 05:29:48;;;;;;;5.55;1.38;;;16.60;97.60;;;;;;5047688;28;20039;-65
2022/06/11 05:32:16;;;;;;;5.35;1.27;;;16.60;97.50;;;;;;5046479;28;20401;-65
2022/06/11 05:34:42;;;;;;;4.88;1.63;;;16.60;97.60;;;;;;5044991;28;20053;-65
2022/06/11 05:37:08;;;;;;;5.10;1.42;;;16.70;97.60;;;;;;5048236;28;20017;-66
2022/06/11 05:39:34;;;;;;;5.10;1.42;;;16.70;97.70;;;;;;5041341;28;20028;-66
2022/06/11 05:42:01;;;;;;;5.05;1.50;;;16.70;97.70;;;;;;5042810;28;20037;-66
2022/06/11 05:44:26;;;;;;;3.70;1.45;;;16.70;97.70;;;;;;5053387;28;20036;-66
2022/06/11 05:46:53;;;;;;;7.20;1.60;;;16.80;97.70;;;;;;5055338;28;20029;-66
2022/06/11 05:49:24;;;;;;;7.85;2.47;;;16.80;97.50;;;;;;5038987;28;20017;-66
2022/06/11 05:51:56;;;;;;;9.20;2.10;;;16.80;97.30;;;;;;5043683;28;20495;-66
2022/06/11 05:54:27;;;;;;;7.10;2.00;;;16.80;97.30;;;;;;5034581;28;20098;-66
2022/06/11 05:56:54;;;;;;;8.68;2.30;;;16.90;97.20;;;;;;5038735;28;20029;-66
2022/06/11 05:59:25;;;;;;;8.20;1.83;;;16.80;97.00;;;;;;5051866;28;20102;-66
2022/06/11 06:01:53;;;;;;;8.63;2.13;;;16.90;96.90;;;;;;5041904;28;20183;-66
2022/06/11 06:04:18;;;;;;;5.60;1.90;;;16.90;96.80;;;;;;5050317;28;20032;-65
2022/06/11 06:06:44;;;;;;;7.75;1.90;;;16.90;96.80;;;;;;5042861;28;20104;-66
2022/06/11 06:09:10;;;;;;;8.18;1.77;;;16.90;96.70;;;;;;5035996;28;20064;-66
2022/06/11 06:11:35;;;;;;;6.55;1.85;;;16.90;96.70;;;;;;5039530;28;20091;-65
2022/06/11 06:14:01;;;;;;;11.48;1.98;;;17.00;96.70;;;;;;5035704;28;20018;-66
2022/06/11 06:16:29;;;;;;;9.98;2.17;;;17.00;96.60;;;;;;5039184;28;20018;-66
2022/06/11 06:18:56;;;;;;;8.95;2.00;;;17.10;96.60;;;;;;5042739;28;20025;-66
2022/06/11 06:21:25;;;;;;;9.23;1.95;;;17.10;96.50;;;;;;5036707;28;20021;-66
2022/06/11 06:23:51;;;;;;;9.25;2.47;;;17.10;96.50;;;;;;5041254;28;20060;-65
2022/06/11 06:26:17;;;;;;;9.32;2.50;;;17.10;96.60;;;;;;5037814;28;20485;-65
2022/06/11 06:28:43;;;;;;;8.07;2.03;;;17.20;96.60;;;;;;5039648;28;20037;-66
2022/06/11 06:31:11;;;;;;;8.80;2.35;;;17.20;96.60;;;;;;5040049;28;20017;-66
2022/06/11 06:33:37;;;;;;;7.35;2.05;;;17.20;96.40;;;;;;5043192;28;20013;-66
2022/06/11 06:36:05;;;;;;;10.80;3.38;;;17.20;96.40;;;;;;5042527;28;20030;-65
2022/06/11 06:38:32;;;;;;;8.43;3.05;;;17.30;96.30;;;;;;5034210;28;20032;-66
2022/06/11 06:40:58;;;;;;;10.90;3.33;;;17.40;96.20;;;;;;5034678;28;20500;-65
2022/06/11 06:43:24;;;;;;;11.32;2.47;;;17.40;96.10;;;;;;5038225;28;20025;-65
2022/06/11 06:45:52;;;;;;;9.52;2.40;;;17.40;96.10;;;;;;5041008;28;20029;-66
2022/06/11 06:48:18;;;;;;;10.35;2.28;;;17.50;96.10;;;;;;5046635;28;20025;-66
2022/06/11 06:50:43;;;;;;;10.73;2.63;;;17.60;96.00;;;;;;5047246;28;20500;-65
2022/06/11 06:53:09;;;;;;;10.40;2.83;;;17.70;95.80;;;;;;5051297;28;20037;-65
2022/06/11 06:55:35;;;;;;;9.13;2.58;;;17.70;95.80;;;;;;5049288;28;20029;-66
2022/06/11 06:58:01;;;;;;;9.25;2.15;;;17.70;95.70;;;;;;5047936;28;20024;-66
2022/06/11 07:00:26;;;;;;;10.07;2.88;;;17.80;95.60;;;;;;5047549;28;20025;-66
2022/06/11 07:02:53;;;;;;;16.23;3.13;;;17.90;95.60;;;;;;5049235;28;20031;-66
2022/06/11 07:05:20;;;;;;;10.13;3.10;;;18.00;95.30;;;;;;5048798;28;20045;-65
2022/06/11 07:07:48;;;;;;;11.20;2.13;;;18.00;94.90;;;;;;5049699;28;20306;-66
2022/06/11 07:10:15;;;;;;;12.13;2.50;;;18.10;94.80;;;;;;5051713;28;20072;-66
2022/06/11 07:12:40;;;;;;;9.48;2.20;;;18.30;94.40;;;;;;5044391;28;20362;-66
2022/06/11 07:15:09;;;;;;;11.90;1.95;;;18.40;94.10;;;;;;5048296;28;20527;-66
2022/06/11 07:17:40;;;;;;;10.43;2.17;;;18.50;93.90;;;;;;5050314;28;20017;-66
2022/06/11 07:20:12;;;;;;;11.40;2.30;;;18.60;93.70;;;;;;5047382;28;20042;-65
2022/06/11 07:22:59;;;;;;;9.02;2.15;;;18.70;93.50;;;;;;5047286;28;20032;-65
2022/06/11 07:25:25;;;;;;;7.93;1.40;;;18.80;93.30;;;;;;5049924;28;20084;-65
2022/06/11 07:27:55;;;;;;;7.05;1.98;;;18.80;93.20;;;;;;5047851;28;20075;-66
2022/06/11 07:30:24;;;;;;;10.70;2.03;;;18.90;92.80;;;;;;5046409;28;20048;-66
2022/06/11 07:32:55;;;;;;;7.10;1.35;;;18.80;92.50;;;;;;5044276;28;20108;-66
2022/06/11 07:35:21;;;;;;;9.55;2.20;;;18.80;92.40;;;;;;5052721;28;20078;-65
2022/06/11 07:37:48;;;;;;;7.30;1.60;;;18.80;92.20;;;;;;5042609;28;20075;-66
2022/06/11 07:40:15;;;;;;;8.27;1.65;;;18.80;92.10;;;;;;5047107;28;20060;-65
2022/06/11 07:42:40;;;;;;;9.20;2.13;;;18.80;91.70;;;;;;5049074;28;20480;-66
2022/06/11 07:45:06;;;;;;;8.32;2.10;;;18.80;91.40;;;;;;5048126;28;20104;-65
2022/06/11 07:50:16;;;;;;;10.18;2.20;;;18.90;91.20;;;;;;5045655;28;20337;-65
2022/06/11 07:52:42;;;;;;;9.05;2.05;;;18.80;91.20;;;;;;5045277;28;20045;-65
2022/06/11 07:55:17;;;;;;;13.32;2.47;;;18.90;91.00;;;;;;5096537;27;20384;-65
2022/06/11 07:57:42;;;;;;;8.88;2.15;;;18.90;90.70;;;;;;5099039;28;20111;-65
2022/06/11 08:00:12;;;;;;;11.32;3.03;;;18.90;90.60;;;;;;5092586;28;20498;-66
2022/06/11 08:02:38;;;;;;;8.43;2.58;;;19.00;90.70;;;;;;5093731;28;20028;-65
2022/06/11 08:05:04;;;;;;;9.95;2.40;;;19.00;90.80;;;;;;5098250;28;20016;-65
2022/06/11 08:07:30;;;;;;;9.38;2.08;;;19.00;90.70;;;;;;5088305;28;20055;-66
2022/06/11 08:09:58;;;;;;;11.55;2.03;;;19.10;90.60;;;;;;5097094;28;20043;-66
2022/06/11 08:12:25;;;;;;;10.13;1.83;;;19.20;90.60;;;;;;5101204;28;20086;-66
2022/06/11 08:14:56;;;;;;;7.43;1.58;;;19.20;90.60;;;;;;5101589;28;20020;-66
2022/06/11 08:17:26;;;;;;;8.70;1.90;;;19.30;90.60;;;;;;5094551;28;20032;-66
2022/06/11 08:19:54;;;;;;;;;;;19.30;90.20;;;;;;5094455;28;20556;-65
2022/06/11 08:22:21;;;;;;;12.18;2.47;;;19.30;90.10;;;;;;5104236;28;19912;-66
2022/06/11 08:24:47;;;;;;;11.70;1.95;;;19.40;90.10;;;;;;5097298;28;20036;-65
2022/06/11 08:27:12;;;;;;;13.43;2.00;;;19.50;89.70;;;;;;5106511;28;20027;-65
2022/06/11 08:29:38;;;;;;;11.18;1.88;;;19.70;89.20;;;;;;5100236;28;20107;-66
2022/06/11 08:32:05;;;;;;;11.20;2.10;;;19.70;88.40;;;;;;5090632;28;20556;-66
2022/06/11 08:34:34;;;;;;;11.55;3.47;;;19.70;88.10;;;;;;5100154;28;20024;-66
2022/06/11 08:37:00;;;;;;;8.65;2.08;;;19.80;87.80;;;;;;5104827;28;20093;-65
2022/06/11 08:39:25;;;;;;;7.47;1.77;;;19.90;87.80;;;;;;5095855;28;20028;-65
2022/06/11 08:41:51;;;;;;;9.00;2.08;;;20.00;87.50;;;;;;5096576;28;20580;-66
2022/06/11 08:44:17;;;;;;;11.50;2.40;;;20.00;87.40;;;;;;5090984;28;20036;-66
2022/06/11 08:46:45;;;;;;;9.20;2.33;;;20.10;87.20;;;;;;5096897;28;20095;-65
2022/06/11 08:49:32;;;;;;;9.07;2.03;;;20.20;87.10;;;;;;5096108;28;20063;-65
2022/06/11 08:52:12;;;;;;;7.78;1.80;;;20.30;86.70;;;;;;5096663;28;20035;-66
2022/06/11 08:54:41;;;;;;;8.65;2.05;;;20.30;86.50;;;;;;5098536;28;20171;-65
2022/06/11 08:57:25;;;;;;;;;;;20.30;85.60;;;;;;5101260;28;20027;-66
2022/06/11 09:00:06;;;;;;;9.88;2.05;;;20.30;85.20;;;;;;5096593;28;19998;-66
2022/06/11 09:02:37;;;;;;;8.73;1.98;;;20.40;84.30;;;;;;5095826;28;20052;-65
2022/06/11 09:05:27;;;;;;;9.88;2.10;;;20.60;84.10;;;;;;5090649;28;20112;-66
2022/06/11 09:08:19;;;;;;;5.93;1.75;;;20.80;83.70;;;;;;5087551;28;20028;-65
2022/06/11 09:11:03;;;;;;;11.85;2.60;;;21.00;83.10;;;;;;5059054;28;20074;-66
2022/06/11 09:14:06;;;;;;;10.18;1.90;;;21.20;82.10;;;;;;5066501;28;20469;-66
2022/06/11 09:16:56;;;;;;;7.20;2.00;;;21.30;81.70;;;;;;5081833;28;20476;-66
2022/06/11 09:19:48;;;;;;;7.47;1.42;;;21.40;81.40;;;;;;5083728;28;20036;-66
2022/06/11 09:23:08;;;;;;;9.63;1.98;;;21.50;81.00;;;;;;5045804;28;20116;-66
2022/06/11 09:25:58;;;;;;;8.57;1.80;;;21.60;79.50;;;;;;5039554;28;20093;-65
2022/06/11 09:28:41;;;;;;;8.63;2.13;;;21.60;79.20;;;;;;5061894;28;20043;-65
2022/06/11 09:31:40;;;;;;;12.02;2.00;;;21.60;77.30;;;;;;5082262;28;20546;-65
2022/06/11 09:34:24;;;;;;;11.60;2.45;;;21.60;75.80;;;;;;5075271;28;20833;-65
2022/06/11 09:37:04;;;;;;;13.18;2.97;;;21.60;75.80;;;;;;5072979;28;20107;-65
2022/06/11 09:39:49;;;;;;;9.38;2.10;;;21.50;74.10;;;;;;5078200;28;20016;-65
2022/06/11 09:42:38;;;;;;;8.38;1.88;;;21.40;75.10;;;;;;5083207;28;20017;-65
2022/06/11 09:45:29;;;;;;;8.90;1.92;;;21.50;74.70;;;;;;5080268;28;20036;-65
2022/06/11 09:48:17;;;;;;;10.30;2.40;;;21.50;74.30;;;;;;5080569;28;20476;-65
2022/06/11 09:50:57;;;;;;;11.93;2.00;;;21.50;73.60;;;;;;5077409;28;20016;-65
2022/06/11 09:53:41;;;;;;;6.53;1.50;;;21.60;73.50;;;;;;5082441;28;20075;-65
2022/06/11 09:56:19;;;;;;;8.73;1.75;;;21.80;73.40;;;;;;5079499;28;20025;-65
2022/06/11 09:59:12;;;;;;;10.40;2.05;;;22.00;72.70;;;;;;5087057;28;20020;-65
2022/06/11 10:01:52;;;;;;;8.82;1.52;;;22.00;72.10;;;;;;5079900;28;20082;-65
2022/06/11 10:04:24;;;;;;;10.63;1.83;;;22.00;72.10;;;;;;5076955;28;20024;-65
2022/06/11 10:06:59;;;;;;;6.90;1.95;;;21.90;72.00;;;;;;5076324;28;20110;-65
2022/06/11 10:09:47;;;;;;;6.68;1.90;;;21.90;73.00;;;;;;5083036;28;20020;-65
2022/06/11 10:12:28;;;;;;;10.93;2.92;;;21.90;73.20;;;;;;5073145;28;20027;-65
2022/06/11 10:15:00;;;;;;;9.55;2.13;;;21.90;72.80;;;;;;5093860;28;20474;-65
2022/06/11 10:17:58;;;;;;;6.78;1.50;;;21.80;72.70;;;;;;5084074;28;20426;-65
2022/06/11 10:20:30;;;;;;;7.65;1.55;;;21.90;72.40;;;;;;5064233;28;20090;-65
2022/06/11 10:23:17;;;;;;;8.60;1.30;;;22.00;70.90;;;;;;5074535;28;20875;-65
2022/06/11 10:25:51;;;;;;;5.93;1.55;;;22.20;70.50;;;;;;5080916;28;20021;-65
2022/06/11 10:28:31;;;;;;;7.38;1.67;;;22.30;69.80;;;;;;5079373;28;20016;-65
2022/06/11 10:31:05;;;;;;;7.88;1.92;;;22.30;69.30;;;;;;5073942;28;20021;-65
2022/06/11 10:33:46;;;;;;;6.53;1.42;;;22.40;69.70;;;;;;5085071;28;20031;-65
2022/06/11 10:36:21;;;;;;;7.43;1.75;;;22.60;69.80;;;;;;5077382;28;20028;-65
2022/06/11 10:38:55;;;;;;;6.63;1.50;;;22.70;69.30;;;;;;5079164;28;20123;-65
2022/06/11 10:41:26;;;;;;;8.88;2.20;;;22.80;68.90;;;;;;5067561;28;20469;-65
2022/06/11 10:44:20;;;;;;;5.82;2.03;;;22.90;68.60;;;;;;5075740;28;20036;-65
2022/06/11 10:46:46;;;;;;;9.63;2.22;;;23.00;68.60;;;;;;5075739;28;20036;-65
2022/06/11 10:49:15;;;;;;;10.18;2.30;;;23.10;67.90;;;;;;5074285;28;20604;-65
2022/06/11 10:51:48;;;;;;;12.50;2.25;;;23.20;68.30;;;;;;5067978;28;20039;-65
2022/06/11 10:54:21;;;;;;;8.93;2.03;;;23.20;66.90;;;;;;5079796;28;20052;-65
2022/06/11 10:56:56;;;;;;;7.03;1.63;;;23.30;67.50;;;;;;5078054;28;20020;-65
2022/06/11 10:59:28;;;;;;;8.32;1.73;;;23.50;67.30;;;;;;5086865;28;20016;-65
2022/06/11 11:02:03;;;;;;;10.15;1.95;;;23.70;66.90;;;;;;5079936;28;20094;-66
2022/06/11 11:05:03;;;;;;;7.68;1.90;;;23.80;66.40;;;;;;5085645;28;20024;-65
2022/06/11 11:07:43;;;;;;;9.93;2.60;;;24.10;66.10;;;;;;5066045;28;20036;-65
2022/06/11 11:10:48;;;;;;;11.52;2.20;;;24.30;65.20;;;;;;5081448;28;20095;-65
2022/06/11 11:13:25;;;;;;;6.53;1.42;;;24.50;64.20;;;;;;5076515;28;20106;-65
2022/06/11 11:16:07;;;;;;;7.45;1.65;;;24.60;63.80;;;;;;5081158;28;20013;-65
2022/06/11 11:18:39;;;;;;;7.45;1.73;;;24.70;63.60;;;;;;5074449;28;20107;-65
2022/06/11 11:21:04;;;;;;;5.35;1.23;;;24.70;63.80;;;;;;5069449;28;20081;-65
2022/06/11 11:23:34;;;;;;;7.30;1.80;;;24.70;63.70;;;;;;5086046;28;20473;-65
2022/06/11 11:26:39;;;;;;;9.27;2.13;;;24.80;63.30;;;;;;5077886;28;20025;-65
2022/06/11 11:29:21;;;;;;;8.77;1.77;;;24.90;63.00;;;;;;5074981;28;20162;-66
2022/06/11 11:31:57;;;;;;;6.38;1.98;;;24.90;62.60;;;;;;5073858;28;20081;-66
2022/06/11 11:34:31;;;;;;;7.40;1.63;;;24.90;62.50;;;;;;5076022;28;20477;-66
2022/06/11 11:37:18;;;;;;;9.18;2.25;;;25.00;62.90;;;;;;5077860;28;20028;-65
2022/06/11 11:39:57;;;;;;;9.75;2.08;;;25.10;62.60;;;;;;5077674;28;20032;-65
2022/06/11 11:42:33;;;;;;;10.52;2.03;;;25.30;62.90;;;;;;5079819;28;20496;-66
2022/06/11 11:45:26;;;;;;;5.53;1.50;;;25.10;62.20;;;;;;5074588;28;20043;-65
2022/06/11 11:48:01;;;;;;;5.10;1.23;;;25.10;62.50;;;;;;5090414;28;20050;-65
2022/06/11 11:50:35;;;;;;;6.38;1.83;;;25.20;62.60;;;;;;5075003;28;20024;-65
2022/06/11 11:53:30;;;;;;;8.20;1.80;;;25.40;62.40;;;;;;5081049;28;20107;-65
2022/06/11 11:56:04;;;;;;;10.88;2.22;;;25.60;62.40;;;;;;5046473;28;20032;-65
2022/06/11 11:58:41;;;;;;;6.55;1.90;;;25.90;61.70;;;;;;5085403;28;20012;-65
2022/06/11 12:01:17;;;;;;;9.15;2.20;;;26.10;61.20;;;;;;5084063;28;20039;-65
2022/06/11 12:04:06;;;;;;;8.32;1.80;;;26.30;60.60;;;;;;5079770;28;20029;-65
2022/06/11 12:06:37;;;;;;;7.47;1.90;;;26.30;59.70;;;;;;5075775;28;20934;-65
2022/06/11 12:09:13;;;;;;;7.75;2.05;;;26.20;60.20;;;;;;5082604;28;20476;-65
2022/06/11 12:11:39;;;;;;;10.85;2.35;;;26.30;59.90;;;;;;5071596;28;20995;-65
2022/06/11 12:14:13;;;;;;;9.48;2.42;;;26.00;59.60;;;;;;5077173;28;20029;-65
2022/06/11 12:16:49;;;;;;;7.78;1.70;;;26.00;60.20;;;;;;5073319;28;20510;-65
2022/06/11 12:19:22;;;;;;;9.30;2.00;;;26.10;60.90;;;;;;5082503;28;20020;-65
2022/06/11 12:21:54;;;;;;;6.90;1.63;;;26.30;60.60;;;;;;5061629;28;20025;-65
2022/06/11 12:24:43;;;;;;;8.20;1.67;;;26.70;60.30;;;;;;5071985;28;20025;-65
2022/06/11 12:27:34;;;;;;;8.65;1.92;;;26.80;59.70;;;;;;5068067;28;20481;-65
2022/06/11 12:30:11;;;;;;;9.27;2.20;;;26.90;59.40;;;;;;5072266;28;20078;-65
2022/06/11 12:32:36;;;;;;;10.18;2.05;;;27.00;59.00;;;;;;5057731;28;20032;-65
2022/06/11 12:35:13;;;;;;;7.68;1.98;;;27.10;58.40;;;;;;5060818;28;20025;-65
2022/06/11 12:37:57;;;;;;;7.47;1.95;;;27.00;57.70;;;;;;5078567;28;20515;-65
2022/06/11 12:40:43;;;;;;;9.23;2.13;;;26.80;57.50;;;;;;5083221;28;20110;-65
2022/06/11 12:43:41;;;;;;;8.95;2.00;;;26.80;58.10;;;;;;5086867;28;20354;-61
2022/06/11 12:46:20;;;;;;;7.93;2.20;;;26.90;57.90;;;;;;5050936;28;20035;-60
2022/06/11 12:48:49;;;;;;;6.25;1.52;;;27.00;57.90;;;;;;5081362;28;20029;-60
2022/06/11 12:52:08;;;;;;;5.60;1.55;;;27.00;58.20;;;;;;5084427;28;20383;-61
2022/06/11 12:55:10;;;;;;;5.82;1.70;;;27.20;58.20;;;;;;5067628;28;20032;-60
2022/06/11 12:58:03;;;;;;;8.80;3.17;;;27.30;57.70;;;;;;5068062;28;20012;-61
2022/06/11 13:00:54;;;;;;;7.60;2.05;;;27.40;57.80;;;;;;5079615;28;20074;-60
2022/06/11 13:03:50;;;;;;;9.40;2.10;;;27.50;57.30;;;;;;5073102;28;20037;-61
2022/06/11 13:06:30;;;;;;;8.00;1.70;;;27.60;56.70;;;;;;5077386;28;20028;-60
2022/06/11 13:09:11;;;;;;;5.13;1.27;;;27.70;56.60;;;;;;5064301;28;20035;-61
2022/06/11 13:12:03;;;;;;;7.10;2.03;;;27.90;56.40;;;;;;5061194;28;20574;-61
2022/06/11 13:15:01;;;;;;;6.75;1.48;;;27.90;55.20;;;;;;5085409;28;20028;-61
2022/06/11 13:17:49;;;;;;;;;;;27.80;55.30;;;;;;5072290;28;20480;-61
2022/06/11 13:20:45;;;;;;;7.63;1.48;;;27.80;55.10;;;;;;5080018;28;20256;-60
2022/06/11 13:23:19;;;;;;;8.60;1.60;;;27.90;54.80;;;;;;5082752;28;20024;-60
2022/06/11 13:25:53;;;;;;;7.63;2.05;;;27.90;55.10;;;;;;5062982;28;20147;-60